Terminal Aerodrome Forecast
Issued by NWS Corpus Christi, TX

Home | Current Version | Previous Version | Text Only | Print | Product List | Glossary On
Versions: 1 2 3 4 5 6 7 8 9 10 11 12 13 14
000
FTUS44 KCRP 292326
TAFCRP
TAF
KCRP 292326Z 3000/3024 14012KT P6SM FEW025
     FM300600 16006KT P6SM SCT018
      TEMPO 3012/3015 BKN018
     FM301500 15012KT P6SM SCT025
     FM301800 12014G19KT P6SM SCT030=

USA.gov is the U.S. government's official web portal to all federal, state and local government web resources and services.